sensor_id;sensor_type;location;lat;lon;timestamp;P1;durP1;ratioP1;P2;durP2;ratioP2
3337;SDS011;1682;49.286;10.788;2023-01-05T00:00:21;2.13;;;0.90;;
3337;SDS011;1682;49.286;10.788;2023-01-05T00:02:48;0.80;;;0.77;;
3337;SDS011;1682;49.286;10.788;2023-01-05T00:05:15;0.77;;;0.77;;
3337;SDS011;1682;49.286;10.788;2023-01-05T00:07:43;0.90;;;0.90;;
3337;SDS011;1682;49.286;10.788;2023-01-05T00:10:10;0.90;;;0.90;;
3337;SDS011;1682;49.286;10.788;2023-01-05T00:12:57;1.77;;;1.27;;
3337;SDS011;1682;49.286;10.788;2023-01-05T00:15:43;1.10;;;1.00;;
3337;SDS011;1682;49.286;10.788;2023-01-05T00:18:28;0.73;;;0.73;;
3337;SDS011;1682;49.286;10.788;2023-01-05T00:21:13;0.90;;;0.90;;
3337;SDS011;1682;49.286;10.788;2023-01-05T00:23:58;1.07;;;0.97;;
3337;SDS011;1682;49.286;10.788;2023-01-05T00:26:25;0.80;;;0.80;;
3337;SDS011;1682;49.286;10.788;2023-01-05T00:28:52;1.00;;;0.90;;
3337;SDS011;1682;49.286;10.788;2023-01-05T00:31:21;0.90;;;0.73;;
3337;SDS011;1682;49.286;10.788;2023-01-05T00:33:48;1.53;;;1.20;;
3337;SDS011;1682;49.286;10.788;2023-01-05T00:36:15;0.77;;;0.77;;
3337;SDS011;1682;49.286;10.788;2023-01-05T00:38:43;0.70;;;0.70;;
3337;SDS011;1682;49.286;10.788;2023-01-05T00:41:10;0.87;;;0.80;;
3337;SDS011;1682;49.286;10.788;2023-01-05T00:43:37;2.30;;;1.00;;
3337;SDS011;1682;49.286;10.788;2023-01-05T00:46:04;0.70;;;0.70;;
3337;SDS011;1682;49.286;10.788;2023-01-05T00:48:33;1.43;;;0.80;;
3337;SDS011;1682;49.286;10.788;2023-01-05T00:51:01;1.43;;;0.80;;
3337;SDS011;1682;49.286;10.788;2023-01-05T00:53:28;0.67;;;0.67;;
3337;SDS011;1682;49.286;10.788;2023-01-05T00:55:55;0.90;;;0.80;;
3337;SDS011;1682;49.286;10.788;2023-01-05T00:58:23;0.77;;;0.77;;
3337;SDS011;1682;49.286;10.788;2023-01-05T01:00:50;0.63;;;0.63;;
3337;SDS011;1682;49.286;10.788;2023-01-05T01:03:17;0.70;;;0.70;;
3337;SDS011;1682;49.286;10.788;2023-01-05T01:05:49;0.70;;;0.70;;
3337;SDS011;1682;49.286;10.788;2023-01-05T01:08:21;0.77;;;0.77;;
3337;SDS011;1682;49.286;10.788;2023-01-05T01:10:48;0.60;;;0.60;;
3337;SDS011;1682;49.286;10.788;2023-01-05T01:13:16;1.07;;;0.97;;
3337;SDS011;1682;49.286;10.788;2023-01-05T01:15:43;0.87;;;0.87;;
3337;SDS011;1682;49.286;10.788;2023-01-05T01:18:11;0.70;;;0.70;;
3337;SDS011;1682;49.286;10.788;2023-01-05T01:20:38;1.20;;;1.20;;
3337;SDS011;1682;49.286;10.788;2023-01-05T01:23:06;0.80;;;0.80;;
3337;SDS011;1682;49.286;10.788;2023-01-05T01:25:36;1.00;;;0.90;;
3337;SDS011;1682;49.286;10.788;2023-01-05T01:28:04;0.80;;;0.70;;
3337;SDS011;1682;49.286;10.788;2023-01-05T01:30:31;0.93;;;0.70;;
3337;SDS011;1682;49.286;10.788;2023-01-05T01:32:58;0.70;;;0.70;;
3337;SDS011;1682;49.286;10.788;2023-01-05T01:35:25;0.80;;;0.80;;
3337;SDS011;1682;49.286;10.788;2023-01-05T01:37:52;1.10;;;0.63;;
3337;SDS011;1682;49.286;10.788;2023-01-05T01:40:21;0.90;;;0.90;;
3337;SDS011;1682;49.286;10.788;2023-01-05T01:42:48;1.00;;;1.00;;
3337;SDS011;1682;49.286;10.788;2023-01-05T01:45:17;0.73;;;0.70;;
3337;SDS011;1682;49.286;10.788;2023-01-05T01:47:44;0.90;;;0.90;;
3337;SDS011;1682;49.286;10.788;2023-01-05T01:50:14;3.23;;;0.77;;
3337;SDS011;1682;49.286;10.788;2023-01-05T01:52:42;0.80;;;0.80;;
3337;SDS011;1682;49.286;10.788;2023-01-05T01:55:10;0.93;;;0.70;;
3337;SDS011;1682;49.286;10.788;2023-01-05T01:57:38;1.57;;;0.90;;
3337;SDS011;1682;49.286;10.788;2023-01-05T02:00:06;0.83;;;0.83;;
3337;SDS011;1682;49.286;10.788;2023-01-05T02:02:34;0.80;;;0.80;;
3337;SDS011;1682;49.286;10.788;2023-01-05T02:05:03;0.80;;;0.80;;
3337;SDS011;1682;49.286;10.788;2023-01-05T02:07:31;0.63;;;0.63;;
3337;SDS011;1682;49.286;10.788;2023-01-05T02:09:59;1.37;;;0.73;;
3337;SDS011;1682;49.286;10.788;2023-01-05T02:12:29;1.00;;;1.00;;
3337;SDS011;1682;49.286;10.788;2023-01-05T02:15:07;0.63;;;0.63;;
3337;SDS011;1682;49.286;10.788;2023-01-05T02:17:41;0.67;;;0.67;;
3337;SDS011;1682;49.286;10.788;2023-01-05T02:20:19;0.60;;;0.60;;
3337;SDS011;1682;49.286;10.788;2023-01-05T02:25:39;0.80;;;0.80;;
3337;SDS011;1682;49.286;10.788;2023-01-05T02:28:12;0.77;;;0.77;;
3337;SDS011;1682;49.286;10.788;2023-01-05T02:30:53;0.87;;;0.83;;
3337;SDS011;1682;49.286;10.788;2023-01-05T02:33:26;0.73;;;0.73;;
3337;SDS011;1682;49.286;10.788;2023-01-05T02:35:57;1.00;;;0.70;;
3337;SDS011;1682;49.286;10.788;2023-01-05T02:38:26;0.60;;;0.60;;
3337;SDS011;1682;49.286;10.788;2023-01-05T02:41:00;0.60;;;0.60;;
3337;SDS011;1682;49.286;10.788;2023-01-05T02:43:30;0.70;;;0.63;;
3337;SDS011;1682;49.286;10.788;2023-01-05T02:45:59;0.60;;;0.60;;
3337;SDS011;1682;49.286;10.788;2023-01-05T02:48:26;0.80;;;0.73;;
3337;SDS011;1682;49.286;10.788;2023-01-05T02:50:55;0.60;;;0.60;;
3337;SDS011;1682;49.286;10.788;2023-01-05T02:53:25;0.60;;;0.60;;
3337;SDS011;1682;49.286;10.788;2023-01-05T02:55:54;0.70;;;0.70;;
3337;SDS011;1682;49.286;10.788;2023-01-05T02:58:23;1.17;;;0.60;;
3337;SDS011;1682;49.286;10.788;2023-01-05T03:00:52;0.60;;;0.60;;
3337;SDS011;1682;49.286;10.788;2023-01-05T03:03:23;0.80;;;0.70;;
3337;SDS011;1682;49.286;10.788;2023-01-05T03:05:52;0.80;;;0.80;;
3337;SDS011;1682;49.286;10.788;2023-01-05T03:08:20;0.53;;;0.53;;
3337;SDS011;1682;49.286;10.788;2023-01-05T03:10:53;0.90;;;0.70;;
3337;SDS011;1682;49.286;10.788;2023-01-05T03:13:41;0.53;;;0.53;;
3337;SDS011;1682;49.286;10.788;2023-01-05T03:16:10;0.67;;;0.67;;
3337;SDS011;1682;49.286;10.788;2023-01-05T03:18:41;1.03;;;0.60;;
3337;SDS011;1682;49.286;10.788;2023-01-05T03:21:26;0.60;;;0.60;;
3337;SDS011;1682;49.286;10.788;2023-01-05T03:23:54;0.70;;;0.70;;
3337;SDS011;1682;49.286;10.788;2023-01-05T03:26:39;0.70;;;0.70;;
3337;SDS011;1682;49.286;10.788;2023-01-05T03:29:25;3.13;;;0.80;;
3337;SDS011;1682;49.286;10.788;2023-01-05T03:32:12;0.60;;;0.60;;
3337;SDS011;1682;49.286;10.788;2023-01-05T03:35:03;0.80;;;0.80;;
3337;SDS011;1682;49.286;10.788;2023-01-05T03:37:50;0.60;;;0.60;;
3337;SDS011;1682;49.286;10.788;2023-01-05T03:40:20;1.40;;;0.70;;
3337;SDS011;1682;49.286;10.788;2023-01-05T03:42:47;0.77;;;0.77;;
3337;SDS011;1682;49.286;10.788;2023-01-05T03:45:15;0.60;;;0.60;;
3337;SDS011;1682;49.286;10.788;2023-01-05T03:47:43;0.63;;;0.63;;
3337;SDS011;1682;49.286;10.788;2023-01-05T03:50:12;0.60;;;0.60;;
3337;SDS011;1682;49.286;10.788;2023-01-05T03:52:39;0.70;;;0.70;;
3337;SDS011;1682;49.286;10.788;2023-01-05T03:55:06;1.10;;;0.83;;
3337;SDS011;1682;49.286;10.788;2023-01-05T03:57:34;0.63;;;0.63;;
3337;SDS011;1682;49.286;10.788;2023-01-05T04:00:02;0.97;;;0.97;;
3337;SDS011;1682;49.286;10.788;2023-01-05T04:02:30;0.70;;;0.70;;
3337;SDS011;1682;49.286;10.788;2023-01-05T04:04:57;0.50;;;0.50;;
3337;SDS011;1682;49.286;10.788;2023-01-05T04:07:25;1.07;;;0.60;;
3337;SDS011;1682;49.286;10.788;2023-01-05T04:09:52;0.70;;;0.70;;
3337;SDS011;1682;49.286;10.788;2023-01-05T04:12:20;0.60;;;0.60;;
3337;SDS011;1682;49.286;10.788;2023-01-05T04:14:47;0.50;;;0.50;;
3337;SDS011;1682;49.286;10.788;2023-01-05T04:17:14;0.63;;;0.63;;
3337;SDS011;1682;49.286;10.788;2023-01-05T04:19:41;0.60;;;0.60;;
3337;SDS011;1682;49.286;10.788;2023-01-05T04:22:08;2.83;;;0.73;;
3337;SDS011;1682;49.286;10.788;2023-01-05T04:24:37;0.60;;;0.60;;
3337;SDS011;1682;49.286;10.788;2023-01-05T04:27:04;1.53;;;0.67;;
3337;SDS011;1682;49.286;10.788;2023-01-05T04:29:31;0.77;;;0.77;;
3337;SDS011;1682;49.286;10.788;2023-01-05T04:31:58;0.80;;;0.80;;
3337;SDS011;1682;49.286;10.788;2023-01-05T04:34:26;2.67;;;0.70;;
3337;SDS011;1682;49.286;10.788;2023-01-05T04:36:53;0.70;;;0.70;;
3337;SDS011;1682;49.286;10.788;2023-01-05T04:39:20;1.00;;;1.00;;
3337;SDS011;1682;49.286;10.788;2023-01-05T04:41:49;0.70;;;0.70;;
3337;SDS011;1682;49.286;10.788;2023-01-05T04:44:16;0.90;;;0.90;;
3337;SDS011;1682;49.286;10.788;2023-01-05T04:46:43;0.70;;;0.70;;
3337;SDS011;1682;49.286;10.788;2023-01-05T04:49:10;0.60;;;0.60;;
3337;SDS011;1682;49.286;10.788;2023-01-05T04:51:37;0.70;;;0.70;;
3337;SDS011;1682;49.286;10.788;2023-01-05T04:54:04;0.80;;;0.80;;
3337;SDS011;1682;49.286;10.788;2023-01-05T04:56:31;0.67;;;0.67;;
3337;SDS011;1682;49.286;10.788;2023-01-05T04:59:00;0.70;;;0.70;;
3337;SDS011;1682;49.286;10.788;2023-01-05T05:01:27;0.60;;;0.60;;
3337;SDS011;1682;49.286;10.788;2023-01-05T05:03:55;0.70;;;0.70;;
3337;SDS011;1682;49.286;10.788;2023-01-05T05:06:22;0.60;;;0.60;;
3337;SDS011;1682;49.286;10.788;2023-01-05T05:08:49;0.70;;;0.70;;
3337;SDS011;1682;49.286;10.788;2023-01-05T05:11:16;0.83;;;0.63;;
3337;SDS011;1682;49.286;10.788;2023-01-05T05:13:43;0.73;;;0.67;;
3337;SDS011;1682;49.286;10.788;2023-01-05T05:16:12;0.60;;;0.60;;
3337;SDS011;1682;49.286;10.788;2023-01-05T05:18:39;1.50;;;0.80;;
3337;SDS011;1682;49.286;10.788;2023-01-05T05:21:06;0.80;;;0.80;;
3337;SDS011;1682;49.286;10.788;2023-01-05T05:23:34;0.90;;;0.90;;
3337;SDS011;1682;49.286;10.788;2023-01-05T05:26:01;1.30;;;1.03;;
3337;SDS011;1682;49.286;10.788;2023-01-05T05:28:28;0.60;;;0.60;;
3337;SDS011;1682;49.286;10.788;2023-01-05T05:30:55;0.90;;;0.90;;
3337;SDS011;1682;49.286;10.788;2023-01-05T05:33:24;0.80;;;0.80;;
3337;SDS011;1682;49.286;10.788;2023-01-05T05:35:51;1.00;;;1.00;;
3337;SDS011;1682;49.286;10.788;2023-01-05T05:38:19;0.93;;;0.90;;
3337;SDS011;1682;49.286;10.788;2023-01-05T05:40:46;0.70;;;0.70;;
3337;SDS011;1682;49.286;10.788;2023-01-05T05:43:14;1.40;;;1.30;;
3337;SDS011;1682;49.286;10.788;2023-01-05T05:45:41;0.90;;;0.90;;
3337;SDS011;1682;49.286;10.788;2023-01-05T05:48:08;0.90;;;0.90;;
3337;SDS011;1682;49.286;10.788;2023-01-05T05:50:37;1.00;;;1.00;;
3337;SDS011;1682;49.286;10.788;2023-01-05T05:53:04;3.60;;;1.23;;
3337;SDS011;1682;49.286;10.788;2023-01-05T05:55:31;1.10;;;1.10;;
3337;SDS011;1682;49.286;10.788;2023-01-05T05:57:59;1.73;;;1.00;;
3337;SDS011;1682;49.286;10.788;2023-01-05T06:00:26;0.90;;;0.90;;
3337;SDS011;1682;49.286;10.788;2023-01-05T06:02:53;0.80;;;0.80;;
3337;SDS011;1682;49.286;10.788;2023-01-05T06:05:20;3.53;;;1.10;;
3337;SDS011;1682;49.286;10.788;2023-01-05T06:07:49;4.33;;;1.00;;
3337;SDS011;1682;49.286;10.788;2023-01-05T06:10:16;2.87;;;1.00;;
3337;SDS011;1682;49.286;10.788;2023-01-05T06:12:44;1.07;;;0.80;;
3337;SDS011;1682;49.286;10.788;2023-01-05T06:15:11;8.70;;;1.33;;
3337;SDS011;1682;49.286;10.788;2023-01-05T06:17:38;1.33;;;0.90;;
3337;SDS011;1682;49.286;10.788;2023-01-05T06:20:06;1.13;;;0.70;;
3337;SDS011;1682;49.286;10.788;2023-01-05T06:22:33;4.20;;;1.03;;
3337;SDS011;1682;49.286;10.788;2023-01-05T06:25:02;3.00;;;1.17;;
3337;SDS011;1682;49.286;10.788;2023-01-05T06:27:29;2.87;;;0.90;;
3337;SDS011;1682;49.286;10.788;2023-01-05T06:29:56;5.30;;;2.20;;
3337;SDS011;1682;49.286;10.788;2023-01-05T06:32:24;1.03;;;0.97;;
3337;SDS011;1682;49.286;10.788;2023-01-05T06:34:51;0.83;;;0.83;;
3337;SDS011;1682;49.286;10.788;2023-01-05T06:37:18;1.70;;;1.10;;
3337;SDS011;1682;49.286;10.788;2023-01-05T06:39:45;3.70;;;1.27;;
3337;SDS011;1682;49.286;10.788;2023-01-05T06:42:14;3.20;;;1.03;;
3337;SDS011;1682;49.286;10.788;2023-01-05T06:44:41;3.57;;;1.43;;
3337;SDS011;1682;49.286;10.788;2023-01-05T06:47:08;2.87;;;0.90;;
3337;SDS011;1682;49.286;10.788;2023-01-05T06:49:35;6.00;;;1.23;;
3337;SDS011;1682;49.286;10.788;2023-01-05T06:52:02;5.37;;;1.13;;
3337;SDS011;1682;49.286;10.788;2023-01-05T06:54:30;4.13;;;0.90;;
3337;SDS011;1682;49.286;10.788;2023-01-05T06:56:57;2.90;;;1.13;;
3337;SDS011;1682;49.286;10.788;2023-01-05T06:59:25;4.87;;;1.10;;
3337;SDS011;1682;49.286;10.788;2023-01-05T07:01:53;1.50;;;1.00;;
3337;SDS011;1682;49.286;10.788;2023-01-05T07:04:20;4.73;;;2.93;;
3337;SDS011;1682;49.286;10.788;2023-01-05T07:06:47;2.70;;;1.70;;
3337;SDS011;1682;49.286;10.788;2023-01-05T07:09:14;6.93;;;1.37;;
3337;SDS011;1682;49.286;10.788;2023-01-05T07:11:42;3.70;;;1.37;;
3337;SDS011;1682;49.286;10.788;2023-01-05T07:14:09;3.23;;;1.20;;
3337;SDS011;1682;49.286;10.788;2023-01-05T07:16:37;1.43;;;1.00;;
3337;SDS011;1682;49.286;10.788;2023-01-05T07:19:05;3.23;;;0.97;;
3337;SDS011;1682;49.286;10.788;2023-01-05T07:21:32;1.40;;;1.30;;
3337;SDS011;1682;49.286;10.788;2023-01-05T07:24:00;2.30;;;1.20;;
3337;SDS011;1682;49.286;10.788;2023-01-05T07:26:27;4.87;;;1.10;;
3337;SDS011;1682;49.286;10.788;2023-01-05T07:28:54;3.20;;;1.57;;
3337;SDS011;1682;49.286;10.788;2023-01-05T07:31:22;6.23;;;1.13;;
3337;SDS011;1682;49.286;10.788;2023-01-05T07:33:51;2.60;;;1.43;;
3337;SDS011;1682;49.286;10.788;2023-01-05T07:36:18;2.40;;;0.80;;
3337;SDS011;1682;49.286;10.788;2023-01-05T07:38:45;6.13;;;1.53;;
3337;SDS011;1682;49.286;10.788;2023-01-05T07:41:12;4.73;;;1.87;;
3337;SDS011;1682;49.286;10.788;2023-01-05T07:43:39;1.20;;;0.90;;
3337;SDS011;1682;49.286;10.788;2023-01-05T07:46:07;6.00;;;1.63;;
3337;SDS011;1682;49.286;10.788;2023-01-05T07:48:34;6.20;;;2.27;;
3337;SDS011;1682;49.286;10.788;2023-01-05T07:51:03;3.50;;;1.13;;
3337;SDS011;1682;49.286;10.788;2023-01-05T07:53:32;4.10;;;1.73;;
3337;SDS011;1682;49.286;10.788;2023-01-05T07:56:01;2.43;;;1.50;;
3337;SDS011;1682;49.286;10.788;2023-01-05T07:58:29;3.57;;;1.33;;
3337;SDS011;1682;49.286;10.788;2023-01-05T08:00:56;8.60;;;1.60;;
3337;SDS011;1682;49.286;10.788;2023-01-05T08:03:23;2.60;;;1.30;;
3337;SDS011;1682;49.286;10.788;2023-01-05T08:05:50;4.20;;;2.13;;
3337;SDS011;1682;49.286;10.788;2023-01-05T08:08:19;3.17;;;1.40;;
3337;SDS011;1682;49.286;10.788;2023-01-05T08:10:46;7.53;;;1.13;;
3337;SDS011;1682;49.286;10.788;2023-01-05T08:13:13;2.60;;;1.47;;
3337;SDS011;1682;49.286;10.788;2023-01-05T08:15:58;5.00;;;1.60;;
3337;SDS011;1682;49.286;10.788;2023-01-05T08:18:26;3.20;;;1.63;;
3337;SDS011;1682;49.286;10.788;2023-01-05T08:20:54;6.07;;;1.70;;
3337;SDS011;1682;49.286;10.788;2023-01-05T08:23:23;2.80;;;1.60;;
3337;SDS011;1682;49.286;10.788;2023-01-05T08:25:51;6.40;;;1.30;;
3337;SDS011;1682;49.286;10.788;2023-01-05T08:28:19;4.03;;;1.60;;
3337;SDS011;1682;49.286;10.788;2023-01-05T08:30:46;6.83;;;1.70;;
3337;SDS011;1682;49.286;10.788;2023-01-05T08:33:13;5.50;;;1.60;;
3337;SDS011;1682;49.286;10.788;2023-01-05T08:35:40;3.65;;;1.25;;
3337;SDS011;1682;49.286;10.788;2023-01-05T08:38:08;2.43;;;1.83;;
3337;SDS011;1682;49.286;10.788;2023-01-05T08:40:37;1.40;;;1.20;;
3337;SDS011;1682;49.286;10.788;2023-01-05T08:43:04;3.10;;;2.13;;
3337;SDS011;1682;49.286;10.788;2023-01-05T08:45:32;2.90;;;1.37;;
3337;SDS011;1682;49.286;10.788;2023-01-05T08:48:00;3.73;;;1.00;;
3337;SDS011;1682;49.286;10.788;2023-01-05T08:50:27;2.93;;;1.50;;
3337;SDS011;1682;49.286;10.788;2023-01-05T08:52:55;2.23;;;1.40;;
3337;SDS011;1682;49.286;10.788;2023-01-05T08:55:23;3.27;;;1.10;;
3337;SDS011;1682;49.286;10.788;2023-01-05T08:57:51;1.10;;;1.00;;
3337;SDS011;1682;49.286;10.788;2023-01-05T09:00:19;4.50;;;1.40;;
3337;SDS011;1682;49.286;10.788;2023-01-05T09:02:46;3.07;;;1.27;;
3337;SDS011;1682;49.286;10.788;2023-01-05T09:05:14;4.23;;;1.43;;
3337;SDS011;1682;49.286;10.788;2023-01-05T09:07:41;13.67;;;1.60;;
3337;SDS011;1682;49.286;10.788;2023-01-05T09:10:09;1.97;;;1.10;;
3337;SDS011;1682;49.286;10.788;2023-01-05T09:12:36;2.80;;;1.50;;
3337;SDS011;1682;49.286;10.788;2023-01-05T09:15:08;3.33;;;1.40;;
3337;SDS011;1682;49.286;10.788;2023-01-05T09:17:35;2.93;;;1.60;;
3337;SDS011;1682;49.286;10.788;2023-01-05T09:20:03;7.80;;;2.40;;
3337;SDS011;1682;49.286;10.788;2023-01-05T09:22:31;2.10;;;1.10;;
3337;SDS011;1682;49.286;10.788;2023-01-05T09:25:00;4.63;;;1.30;;
3337;SDS011;1682;49.286;10.788;2023-01-05T09:27:27;2.13;;;1.10;;
3337;SDS011;1682;49.286;10.788;2023-01-05T09:29:54;4.87;;;1.40;;
3337;SDS011;1682;49.286;10.788;2023-01-05T09:32:23;2.30;;;1.53;;
3337;SDS011;1682;49.286;10.788;2023-01-05T09:34:50;1.87;;;1.37;;
3337;SDS011;1682;49.286;10.788;2023-01-05T09:37:17;3.83;;;1.67;;
3337;SDS011;1682;49.286;10.788;2023-01-05T09:39:45;1.80;;;1.40;;
3337;SDS011;1682;49.286;10.788;2023-01-05T09:42:13;4.67;;;1.70;;
3337;SDS011;1682;49.286;10.788;2023-01-05T09:44:42;6.70;;;2.10;;
3337;SDS011;1682;49.286;10.788;2023-01-05T09:47:12;4.83;;;1.50;;
3337;SDS011;1682;49.286;10.788;2023-01-05T09:49:42;4.93;;;1.47;;
3337;SDS011;1682;49.286;10.788;2023-01-05T09:52:11;6.93;;;1.83;;
3337;SDS011;1682;49.286;10.788;2023-01-05T09:54:39;2.80;;;1.53;;
3337;SDS011;1682;49.286;10.788;2023-01-05T09:57:10;5.70;;;1.30;;
3337;SDS011;1682;49.286;10.788;2023-01-05T09:59:41;8.90;;;1.37;;
3337;SDS011;1682;49.286;10.788;2023-01-05T10:02:16;3.53;;;1.43;;
3337;SDS011;1682;49.286;10.788;2023-01-05T10:04:46;4.73;;;1.57;;
3337;SDS011;1682;49.286;10.788;2023-01-05T10:07:16;8.17;;;1.80;;
3337;SDS011;1682;49.286;10.788;2023-01-05T10:09:45;4.90;;;1.47;;
3337;SDS011;1682;49.286;10.788;2023-01-05T10:12:14;7.80;;;2.23;;
3337;SDS011;1682;49.286;10.788;2023-01-05T10:15:01;5.73;;;2.43;;
3337;SDS011;1682;49.286;10.788;2023-01-05T10:17:32;5.73;;;1.77;;
3337;SDS011;1682;49.286;10.788;2023-01-05T10:20:01;1.23;;;1.13;;
3337;SDS011;1682;49.286;10.788;2023-01-05T10:22:30;4.17;;;2.13;;
3337;SDS011;1682;49.286;10.788;2023-01-05T10:25:02;2.80;;;1.50;;
3337;SDS011;1682;49.286;10.788;2023-01-05T10:27:32;2.80;;;2.50;;
3337;SDS011;1682;49.286;10.788;2023-01-05T10:30:02;5.53;;;1.53;;
3337;SDS011;1682;49.286;10.788;2023-01-05T10:32:37;4.50;;;1.50;;
3337;SDS011;1682;49.286;10.788;2023-01-05T10:35:11;6.20;;;1.73;;
3337;SDS011;1682;49.286;10.788;2023-01-05T10:37:47;4.37;;;1.60;;
3337;SDS011;1682;49.286;10.788;2023-01-05T10:40:22;4.50;;;1.63;;
3337;SDS011;1682;49.286;10.788;2023-01-05T10:42:56;2.83;;;1.50;;
3337;SDS011;1682;49.286;10.788;2023-01-05T10:45:25;8.33;;;1.47;;
3337;SDS011;1682;49.286;10.788;2023-01-05T10:47:54;3.33;;;1.80;;
3337;SDS011;1682;49.286;10.788;2023-01-05T10:50:26;4.00;;;1.77;;
3337;SDS011;1682;49.286;10.788;2023-01-05T10:52:54;3.23;;;1.70;;
3337;SDS011;1682;49.286;10.788;2023-01-05T10:55:22;5.07;;;2.20;;
3337;SDS011;1682;49.286;10.788;2023-01-05T10:57:50;4.93;;;2.40;;
3337;SDS011;1682;49.286;10.788;2023-01-05T11:00:18;4.37;;;2.43;;
3337;SDS011;1682;49.286;10.788;2023-01-05T11:02:46;7.40;;;1.97;;
3337;SDS011;1682;49.286;10.788;2023-01-05T11:05:23;6.13;;;1.97;;
3337;SDS011;1682;49.286;10.788;2023-01-05T11:07:53;4.10;;;1.70;;
3337;SDS011;1682;49.286;10.788;2023-01-05T11:10:21;5.73;;;1.73;;
3337;SDS011;1682;49.286;10.788;2023-01-05T11:12:50;4.07;;;2.23;;
3337;SDS011;1682;49.286;10.788;2023-01-05T11:15:17;2.37;;;1.83;;
3337;SDS011;1682;49.286;10.788;2023-01-05T11:17:45;4.83;;;2.07;;
3337;SDS011;1682;49.286;10.788;2023-01-05T11:20:15;7.70;;;2.10;;
3337;SDS011;1682;49.286;10.788;2023-01-05T11:22:43;6.00;;;1.80;;
3337;SDS011;1682;49.286;10.788;2023-01-05T11:25:17;6.83;;;1.73;;
3337;SDS011;1682;49.286;10.788;2023-01-05T11:27:49;5.23;;;1.60;;
3337;SDS011;1682;49.286;10.788;2023-01-05T11:30:30;8.23;;;2.47;;
3337;SDS011;1682;49.286;10.788;2023-01-05T11:32:57;5.17;;;2.10;;
3337;SDS011;1682;49.286;10.788;2023-01-05T11:35:27;5.63;;;2.33;;
3337;SDS011;1682;49.286;10.788;2023-01-05T11:37:56;5.20;;;1.20;;
3337;SDS011;1682;49.286;10.788;2023-01-05T11:40:26;3.83;;;2.10;;
3337;SDS011;1682;49.286;10.788;2023-01-05T11:42:54;4.63;;;2.47;;
3337;SDS011;1682;49.286;10.788;2023-01-05T11:45:22;2.83;;;1.77;;
3337;SDS011;1682;49.286;10.788;2023-01-05T11:47:51;5.50;;;2.17;;
3337;SDS011;1682;49.286;10.788;2023-01-05T11:50:19;7.27;;;1.87;;
3337;SDS011;1682;49.286;10.788;2023-01-05T11:52:50;10.83;;;1.90;;
3337;SDS011;1682;49.286;10.788;2023-01-05T11:55:21;7.77;;;6.50;;
3337;SDS011;1682;49.286;10.788;2023-01-05T11:57:57;3.90;;;2.60;;
3337;SDS011;1682;49.286;10.788;2023-01-05T12:00:26;5.87;;;2.00;;
3337;SDS011;1682;49.286;10.788;2023-01-05T12:03:03;3.00;;;2.20;;
3337;SDS011;1682;49.286;10.788;2023-01-05T12:05:35;3.53;;;1.97;;
3337;SDS011;1682;49.286;10.788;2023-01-05T12:08:06;4.13;;;1.57;;
3337;SDS011;1682;49.286;10.788;2023-01-05T12:10:47;2.30;;;1.50;;
3337;SDS011;1682;49.286;10.788;2023-01-05T12:13:22;14.50;;;3.10;;
3337;SDS011;1682;49.286;10.788;2023-01-05T12:16:00;3.93;;;1.17;;
3337;SDS011;1682;49.286;10.788;2023-01-05T12:18:44;10.57;;;1.97;;
3337;SDS011;1682;49.286;10.788;2023-01-05T12:21:16;15.93;;;1.97;;
3337;SDS011;1682;49.286;10.788;2023-01-05T12:23:49;5.23;;;1.53;;
3337;SDS011;1682;49.286;10.788;2023-01-05T12:26:18;8.20;;;2.23;;
3337;SDS011;1682;49.286;10.788;2023-01-05T12:28:53;1.80;;;1.50;;
3337;SDS011;1682;49.286;10.788;2023-01-05T12:31:28;5.50;;;1.93;;
3337;SDS011;1682;49.286;10.788;2023-01-05T12:34:01;3.30;;;1.60;;
3337;SDS011;1682;49.286;10.788;2023-01-05T12:36:39;5.57;;;2.03;;
3337;SDS011;1682;49.286;10.788;2023-01-05T12:39:15;6.03;;;2.37;;
3337;SDS011;1682;49.286;10.788;2023-01-05T12:41:53;8.83;;;3.00;;
3337;SDS011;1682;49.286;10.788;2023-01-05T12:44:32;6.00;;;3.57;;
3337;SDS011;1682;49.286;10.788;2023-01-05T12:47:06;6.47;;;2.70;;
3337;SDS011;1682;49.286;10.788;2023-01-05T12:49:38;7.70;;;1.97;;
3337;SDS011;1682;49.286;10.788;2023-01-05T12:52:07;2.40;;;2.20;;
3337;SDS011;1682;49.286;10.788;2023-01-05T12:54:37;1.90;;;1.67;;
3337;SDS011;1682;49.286;10.788;2023-01-05T12:57:07;2.10;;;1.60;;
3337;SDS011;1682;49.286;10.788;2023-01-05T12:59:36;4.20;;;2.20;;
3337;SDS011;1682;49.286;10.788;2023-01-05T13:02:11;5.70;;;2.27;;
3337;SDS011;1682;49.286;10.788;2023-01-05T13:04:42;4.83;;;2.60;;
3337;SDS011;1682;49.286;10.788;2023-01-05T13:07:13;4.67;;;1.57;;
3337;SDS011;1682;49.286;10.788;2023-01-05T13:09:41;6.53;;;2.10;;
3337;SDS011;1682;49.286;10.788;2023-01-05T13:12:09;5.53;;;2.10;;
3337;SDS011;1682;49.286;10.788;2023-01-05T13:14:39;4.87;;;2.00;;
3337;SDS011;1682;49.286;10.788;2023-01-05T13:17:10;4.10;;;1.83;;
3337;SDS011;1682;49.286;10.788;2023-01-05T13:19:40;3.77;;;1.80;;
3337;SDS011;1682;49.286;10.788;2023-01-05T13:22:09;6.00;;;2.30;;
3337;SDS011;1682;49.286;10.788;2023-01-05T13:24:43;3.83;;;1.90;;
3337;SDS011;1682;49.286;10.788;2023-01-05T13:27:15;4.00;;;3.50;;
3337;SDS011;1682;49.286;10.788;2023-01-05T13:29:45;12.87;;;2.13;;
3337;SDS011;1682;49.286;10.788;2023-01-05T13:32:19;7.00;;;2.97;;
3337;SDS011;1682;49.286;10.788;2023-01-05T13:34:55;6.70;;;2.43;;
3337;SDS011;1682;49.286;10.788;2023-01-05T13:40:21;3.57;;;2.90;;
3337;SDS011;1682;49.286;10.788;2023-01-05T13:42:53;12.13;;;2.90;;
3337;SDS011;1682;49.286;10.788;2023-01-05T13:45:32;7.30;;;2.57;;
3337;SDS011;1682;49.286;10.788;2023-01-05T13:48:09;6.10;;;2.43;;
3337;SDS011;1682;49.286;10.788;2023-01-05T13:50:43;6.00;;;2.23;;
3337;SDS011;1682;49.286;10.788;2023-01-05T13:53:13;9.63;;;3.07;;
3337;SDS011;1682;49.286;10.788;2023-01-05T13:55:46;4.70;;;2.60;;
3337;SDS011;1682;49.286;10.788;2023-01-05T13:58:22;3.30;;;2.27;;
3337;SDS011;1682;49.286;10.788;2023-01-05T14:00:55;4.77;;;2.40;;
3337;SDS011;1682;49.286;10.788;2023-01-05T14:03:26;11.83;;;2.50;;
3337;SDS011;1682;49.286;10.788;2023-01-05T14:05:54;4.13;;;2.23;;
3337;SDS011;1682;49.286;10.788;2023-01-05T14:08:27;8.50;;;2.50;;
3337;SDS011;1682;49.286;10.788;2023-01-05T14:11:06;3.40;;;1.83;;
3337;SDS011;1682;49.286;10.788;2023-01-05T14:13:45;3.43;;;2.17;;
3337;SDS011;1682;49.286;10.788;2023-01-05T14:19:08;8.00;;;2.63;;
3337;SDS011;1682;49.286;10.788;2023-01-05T14:21:57;7.33;;;2.70;;
3337;SDS011;1682;49.286;10.788;2023-01-05T14:24:29;6.47;;;3.30;;
3337;SDS011;1682;49.286;10.788;2023-01-05T14:32:36;8.10;;;2.50;;
3337;SDS011;1682;49.286;10.788;2023-01-05T14:35:06;7.33;;;2.77;;
3337;SDS011;1682;49.286;10.788;2023-01-05T14:37:35;12.30;;;2.93;;
3337;SDS011;1682;49.286;10.788;2023-01-05T14:40:13;4.63;;;2.03;;
3337;SDS011;1682;49.286;10.788;2023-01-05T14:42:41;5.40;;;2.43;;
3337;SDS011;1682;49.286;10.788;2023-01-05T14:45:20;8.83;;;2.60;;
3337;SDS011;1682;49.286;10.788;2023-01-05T14:47:48;4.00;;;1.80;;
3337;SDS011;1682;49.286;10.788;2023-01-05T14:50:25;6.50;;;2.53;;
3337;SDS011;1682;49.286;10.788;2023-01-05T14:52:54;8.53;;;3.33;;
3337;SDS011;1682;49.286;10.788;2023-01-05T14:55:23;10.67;;;2.93;;
3337;SDS011;1682;49.286;10.788;2023-01-05T14:57:51;4.43;;;2.37;;
3337;SDS011;1682;49.286;10.788;2023-01-05T15:00:21;4.27;;;2.60;;
3337;SDS011;1682;49.286;10.788;2023-01-05T15:02:52;10.50;;;2.90;;
3337;SDS011;1682;49.286;10.788;2023-01-05T15:05:19;7.43;;;3.07;;
3337;SDS011;1682;49.286;10.788;2023-01-05T15:07:50;7.40;;;2.37;;
3337;SDS011;1682;49.286;10.788;2023-01-05T15:13:14;3.50;;;1.97;;
3337;SDS011;1682;49.286;10.788;2023-01-05T15:15:43;7.70;;;2.20;;
3337;SDS011;1682;49.286;10.788;2023-01-05T15:18:15;3.90;;;1.83;;
3337;SDS011;1682;49.286;10.788;2023-01-05T15:21:04;9.13;;;2.90;;
3337;SDS011;1682;49.286;10.788;2023-01-05T15:23:56;6.93;;;2.60;;
3337;SDS011;1682;49.286;10.788;2023-01-05T15:26:26;5.70;;;2.33;;
3337;SDS011;1682;49.286;10.788;2023-01-05T15:29:04;6.30;;;2.80;;
3337;SDS011;1682;49.286;10.788;2023-01-05T15:31:38;5.10;;;2.27;;
3337;SDS011;1682;49.286;10.788;2023-01-05T15:34:13;7.73;;;2.57;;